Terminal Aerodrome Forecast
Issued by NWS

Home | Current Version | Previous Version | Text Only | Print | Product List | Glossary On
Versions: 1 2 3 4 5 6 7 8 9 10 11 12 13 14 15 16 17
000
FTUS46 KLOX 010100 AAA
TAFPRB
TAF AMD
KPRB 010131Z 0102/0124 31014KT P6SM SKC
     FM010300 31010KT P6SM SKC
     FM010700 VRB03KT P6SM SKC
     FM012100 25008KT P6SM SKC
     FM012300 20015KT P6SM SKC=

USA.gov is the U.S. government's official web portal to all federal, state and local government web resources and services.